Time;durP1;ratioP1;P1;durP2;ratioP2;P2;SDS_P1;SDS_P2;PMS_P1;PMS_P2;Temp;Humidity;BMP_temperature;BMP_pressure;BME280_temperature;BME280_humidity;BME280_pressure;Samples;Min_cycle;Max_cycle;Signal;HPM_P1;HPM_P2
2023/10/08 00:01:17;;;;;;;6.63;3.50;;;15.00;99.90;;;;;;5075148;28;20116;-72
2023/10/08 00:03:57;;;;;;;6.55;3.55;;;14.90;99.90;;;;;;5075082;28;20072;-72
2023/10/08 00:06:23;;;;;;;5.97;3.08;;;14.90;99.90;;;;;;5075202;28;20040;-72
2023/10/08 00:08:49;;;;;;;4.40;2.35;;;14.90;99.90;;;;;;5075189;28;20401;-72
2023/10/08 00:11:18;;;;;;;3.50;2.22;;;14.90;99.90;;;;;;5074885;28;20040;-72
2023/10/08 00:13:44;;;;;;;6.30;1.52;;;14.90;99.90;;;;;;5074804;28;20037;-72
2023/10/08 00:16:15;;;;;;;3.58;1.50;;;14.80;99.90;;;;;;5074606;28;20505;-72
2023/10/08 00:18:48;;;;;;;3.05;1.40;;;14.90;99.90;;;;;;5073597;28;20044;-72
2023/10/08 00:23:42;;;;;;;2.58;1.15;;;14.80;99.90;;;;;;5073532;28;20052;-72
2023/10/08 00:26:10;;;;;;;1.65;0.88;;;14.70;99.90;;;;;;5073572;28;20054;-72
2023/10/08 00:28:36;;;;;;;1.70;0.80;;;14.80;99.90;;;;;;5073665;28;20049;-72
2023/10/08 00:31:11;;;;;;;3.03;0.85;;;14.80;99.90;;;;;;5073335;28;20507;-72
2023/10/08 00:33:37;;;;;;;1.83;0.50;;;14.70;99.90;;;;;;5073341;28;20120;-72
2023/10/08 00:36:17;;;;;;;2.03;0.47;;;14.60;99.90;;;;;;5072833;28;20040;-73
2023/10/08 00:38:44;;;;;;;2.15;0.57;;;14.70;99.90;;;;;;5073493;28;20055;-73
2023/10/08 00:41:16;;;;;;;2.35;0.50;;;14.70;99.90;;;;;;5073444;28;20036;-73
2023/10/08 00:43:45;;;;;;;1.83;0.50;;;14.70;99.90;;;;;;5073229;28;20497;-73
2023/10/08 00:46:23;;;;;;;1.65;0.30;;;14.70;99.90;;;;;;5073000;28;20072;-72
2023/10/08 00:48:54;;;;;;;1.10;0.30;;;14.60;99.90;;;;;;5073144;28;20199;-72
2023/10/08 00:51:27;;;;;;;1.25;0.45;;;14.60;99.90;;;;;;5073319;28;20064;-72
2023/10/08 00:53:57;;;;;;;;;;;14.60;99.90;;;;;;5073464;28;20037;-72
2023/10/08 00:56:30;;;;;;;1.25;0.40;;;14.50;99.90;;;;;;5072910;28;19967;-72
2023/10/08 00:58:56;;;;;;;1.92;0.70;;;14.40;99.90;;;;;;5072994;28;20047;-72
2023/10/08 01:01:25;;;;;;;1.35;0.45;;;14.40;99.90;;;;;;5072871;28;20143;-72
2023/10/08 01:03:51;;;;;;;3.33;1.00;;;14.50;99.90;;;;;;5074102;28;20090;-72
2023/10/08 01:06:18;;;;;;;2.42;0.85;;;14.40;99.90;;;;;;5072918;28;20040;-72
2023/10/08 01:08:52;;;;;;;2.75;0.90;;;14.50;99.90;;;;;;5056241;28;20086;-72
2023/10/08 01:11:46;;;;;;;1.77;0.98;;;14.40;99.90;;;;;;5072758;28;20090;-72
2023/10/08 01:14:11;;;;;;;1.75;1.08;;;14.40;99.90;;;;;;5072642;28;20127;-72
2023/10/08 01:16:39;;;;;;;1.93;0.97;;;14.30;99.90;;;;;;5023340;28;1405891;-72
2023/10/08 01:19:12;;;;;;;2.03;1.08;;;14.30;99.90;;;;;;5073663;28;20128;-72
2023/10/08 01:21:39;;;;;;;2.38;1.27;;;14.30;99.90;;;;;;5073580;28;20147;-72
2023/10/08 01:24:06;;;;;;;2.03;0.95;;;14.30;99.90;;;;;;5073651;28;20047;-72
2023/10/08 01:26:33;;;;;;;1.75;0.80;;;14.30;99.90;;;;;;5073600;28;20071;-72
2023/10/08 01:29:03;;;;;;;2.03;0.68;;;14.30;99.90;;;;;;5073367;28;20048;-72
2023/10/08 01:31:29;;;;;;;2.08;0.80;;;14.30;99.90;;;;;;5073335;28;20044;-72
2023/10/08 01:33:56;;;;;;;3.63;1.10;;;14.30;99.90;;;;;;5074841;28;20039;-72
2023/10/08 01:36:25;;;;;;;2.47;0.80;;;14.30;99.90;;;;;;5073409;28;20124;-72
2023/10/08 01:38:52;;;;;;;1.95;0.70;;;14.30;99.90;;;;;;5073175;28;20078;-72
2023/10/08 01:41:18;;;;;;;2.55;0.80;;;14.30;99.90;;;;;;5073202;28;20087;-72
2023/10/08 01:43:45;;;;;;;1.45;0.65;;;14.30;99.90;;;;;;5074374;28;20084;-72
2023/10/08 01:46:12;;;;;;;3.08;0.50;;;14.30;99.90;;;;;;5073011;28;20127;-72
2023/10/08 01:48:39;;;;;;;1.65;0.52;;;14.30;99.90;;;;;;5072557;28;20056;-73
2023/10/08 01:51:11;;;;;;;2.00;0.40;;;14.30;99.90;;;;;;5072974;28;20079;-72
2023/10/08 01:53:38;;;;;;;3.13;0.40;;;14.30;99.90;;;;;;5073016;28;20050;-72
2023/10/08 01:56:04;;;;;;;2.65;0.50;;;14.20;99.90;;;;;;5073080;28;20052;-72
2023/10/08 01:58:30;;;;;;;2.83;0.70;;;14.20;99.90;;;;;;5073086;28;20044;-72
2023/10/08 02:01:00;;;;;;;2.25;0.32;;;14.20;99.90;;;;;;5072756;28;20067;-72
2023/10/08 02:03:27;;;;;;;3.13;0.43;;;14.20;99.90;;;;;;5072814;28;20047;-72
2023/10/08 02:05:53;;;;;;;1.42;0.30;;;14.30;99.90;;;;;;5072646;28;20043;-72
2023/10/08 02:08:20;;;;;;;0.60;0.30;;;14.30;99.90;;;;;;5072546;28;20472;-72
2023/10/08 02:10:49;;;;;;;1.65;0.38;;;14.30;99.90;;;;;;5072621;28;20047;-72
2023/10/08 02:13:15;;;;;;;1.25;0.32;;;14.30;99.90;;;;;;5072549;28;20496;-72
2023/10/08 02:15:54;;;;;;;4.65;0.50;;;14.30;99.90;;;;;;5072679;28;20075;-72
2023/10/08 02:18:20;;;;;;;2.03;0.55;;;14.30;99.90;;;;;;5072690;28;20044;-72
2023/10/08 02:20:46;;;;;;;1.75;0.50;;;14.30;99.90;;;;;;5072428;28;20051;-72
2023/10/08 02:23:12;;;;;;;2.72;0.28;;;14.30;99.90;;;;;;5072371;28;20041;-73
2023/10/08 02:25:39;;;;;;;3.00;0.45;;;14.30;99.90;;;;;;5072242;28;20040;-72
2023/10/08 02:28:09;;;;;;;2.35;0.30;;;14.20;99.90;;;;;;5072217;28;20045;-72
2023/10/08 02:30:36;;;;;;;2.70;0.30;;;14.20;99.90;;;;;;5055664;28;20062;-72
2023/10/08 02:33:02;;;;;;;3.13;0.55;;;14.30;99.90;;;;;;5072219;28;20094;-72
2023/10/08 02:35:28;;;;;;;1.63;0.30;;;14.20;99.90;;;;;;5072134;28;20051;-72
2023/10/08 02:37:54;;;;;;;2.13;0.38;;;14.20;99.90;;;;;;5073498;28;20044;-72
2023/10/08 02:40:26;;;;;;;2.67;0.60;;;14.20;99.90;;;;;;5072074;28;20095;-72
2023/10/08 02:42:58;;;;;;;4.70;0.60;;;14.20;99.90;;;;;;5073375;28;20041;-72
2023/10/08 02:45:25;;;;;;;2.97;0.60;;;14.20;99.90;;;;;;5072329;28;20119;-72
2023/10/08 02:47:52;;;;;;;2.42;0.30;;;14.10;99.90;;;;;;5071940;28;20501;-72
2023/10/08 02:50:22;;;;;;;2.40;0.50;;;14.20;99.90;;;;;;5072014;28;20045;-72
2023/10/08 02:52:49;;;;;;;2.83;0.55;;;14.20;99.90;;;;;;5071971;28;20040;-72
2023/10/08 02:55:33;;;;;;;3.03;0.40;;;14.20;99.90;;;;;;5071861;28;20556;-71
2023/10/08 02:58:02;;;;;;;3.22;0.60;;;14.20;99.90;;;;;;5073439;28;20193;-71
2023/10/08 03:00:34;;;;;;;2.95;0.60;;;14.20;99.90;;;;;;5071822;28;20044;-71
2023/10/08 03:03:07;;;;;;;2.10;0.40;;;14.10;99.90;;;;;;5072123;28;20040;-71
2023/10/08 03:05:35;;;;;;;2.38;0.70;;;14.10;99.90;;;;;;5072027;28;20036;-71
2023/10/08 03:08:10;;;;;;;3.15;0.70;;;14.10;99.90;;;;;;5071655;28;20044;-71
2023/10/08 03:10:37;;;;;;;5.22;0.82;;;14.10;99.90;;;;;;5071836;28;20087;-71
2023/10/08 03:13:09;;;;;;;3.83;0.60;;;14.10;99.90;;;;;;5071986;28;20075;-71
2023/10/08 03:15:46;;;;;;;4.32;0.60;;;14.10;99.90;;;;;;5054957;28;20044;-71
2023/10/08 03:18:15;;;;;;;3.08;0.63;;;14.10;99.90;;;;;;5071553;28;20041;-71
2023/10/08 03:20:46;;;;;;;2.38;0.70;;;14.10;99.90;;;;;;5071618;28;20094;-71
2023/10/08 03:23:23;;;;;;;3.75;0.75;;;14.10;99.90;;;;;;5071899;28;20044;-71
2023/10/08 03:26:28;;;;;;;2.58;0.88;;;14.00;99.90;;;;;;5071816;28;20055;-71
2023/10/08 03:28:57;;;;;;;3.47;0.70;;;14.10;99.90;;;;;;5071604;28;20072;-71
2023/10/08 03:31:44;;;;;;;5.10;0.80;;;14.00;99.90;;;;;;5071543;28;20072;-71
2023/10/08 03:34:13;;;;;;;4.88;0.93;;;14.00;99.90;;;;;;5071598;28;20520;-71
2023/10/08 03:36:45;;;;;;;2.72;0.80;;;14.10;99.90;;;;;;5071535;28;20044;-71
2023/10/08 03:39:14;;;;;;;3.00;0.80;;;14.10;99.90;;;;;;5072275;28;20102;-71
2023/10/08 03:41:57;;;;;;;2.90;0.95;;;14.10;99.90;;;;;;5071722;28;20101;-71
2023/10/08 03:44:24;;;;;;;4.38;1.02;;;14.00;99.90;;;;;;5071620;28;20098;-71
2023/10/08 03:46:52;;;;;;;3.17;0.90;;;14.00;99.90;;;;;;5071356;28;20131;-71
2023/10/08 03:51:48;;;;;;;4.38;0.98;;;14.10;99.90;;;;;;5071609;28;20041;-71
2023/10/08 03:54:17;;;;;;;2.72;0.80;;;14.00;99.90;;;;;;5071475;28;20082;-71
2023/10/08 03:56:48;;;;;;;7.75;1.00;;;14.00;99.90;;;;;;5072557;28;20040;-71
2023/10/08 03:59:29;;;;;;;3.30;1.00;;;14.00;99.90;;;;;;5071577;28;20060;-71
2023/10/08 04:02:14;;;;;;;2.97;1.15;;;14.00;99.90;;;;;;5071293;28;20055;-71
2023/10/08 04:04:56;;;;;;;2.28;0.75;;;14.00;99.90;;;;;;5071512;28;20070;-71
2023/10/08 04:12:34;;;;;;;6.47;1.00;;;14.00;99.90;;;;;;5075132;28;20552;-71
2023/10/08 04:15:07;;;;;;;5.18;0.93;;;14.00;99.90;;;;;;5074742;28;20131;-71
2023/10/08 04:17:43;;;;;;;;;;;14.00;99.90;;;;;;5075026;28;20074;-72
2023/10/08 04:23:01;;;;;;;3.63;1.60;;;13.90;99.90;;;;;;5074946;28;20044;-71
2023/10/08 04:25:28;;;;;;;3.90;1.20;;;13.90;99.90;;;;;;5074517;28;20089;-71
2023/10/08 04:27:58;;;;;;;4.25;1.40;;;13.90;99.90;;;;;;5074473;28;20123;-71
2023/10/08 04:30:32;;;;;;;5.55;1.48;;;13.90;99.90;;;;;;5074762;28;20063;-71
2023/10/08 04:33:06;;;;;;;2.80;1.20;;;13.90;99.90;;;;;;5074795;28;20032;-71
2023/10/08 04:35:36;;;;;;;4.72;1.38;;;13.90;99.90;;;;;;5074374;28;20036;-71
2023/10/08 04:38:08;;;;;;;5.05;1.20;;;13.90;99.90;;;;;;5074373;28;20463;-71
2023/10/08 04:40:42;;;;;;;4.53;1.05;;;13.90;99.90;;;;;;5074413;28;20044;-71
2023/10/08 04:43:10;;;;;;;3.95;1.20;;;13.90;99.90;;;;;;5074351;28;20044;-71
2023/10/08 04:45:37;;;;;;;5.43;1.20;;;13.80;99.90;;;;;;5057472;28;20049;-71
2023/10/08 04:48:09;;;;;;;5.70;1.13;;;13.90;99.90;;;;;;5074093;28;20390;-71
2023/10/08 04:50:38;;;;;;;2.28;0.98;;;14.00;99.90;;;;;;5074468;28;20036;-71
2023/10/08 04:53:07;;;;;;;2.58;0.85;;;13.90;99.90;;;;;;5057451;28;20530;-71
2023/10/08 04:55:41;;;;;;;3.00;0.88;;;13.90;99.90;;;;;;5074547;28;20048;-71
2023/10/08 04:58:12;;;;;;;4.53;1.02;;;13.90;99.90;;;;;;5074068;28;20559;-71
2023/10/08 05:00:53;;;;;;;4.30;0.60;;;13.80;99.90;;;;;;5074195;28;20080;-71
2023/10/08 05:03:20;;;;;;;2.30;0.77;;;13.90;99.90;;;;;;5074222;28;20061;-71
2023/10/08 05:06:07;;;;;;;3.83;0.90;;;13.90;99.90;;;;;;5075346;28;20048;-71
2023/10/08 05:08:47;;;;;;;2.58;0.70;;;13.90;99.90;;;;;;5073789;28;20041;-71
2023/10/08 05:11:45;;;;;;;5.53;0.77;;;13.90;99.90;;;;;;5075637;28;20484;-71
2023/10/08 05:14:27;;;;;;;4.25;0.70;;;13.80;99.90;;;;;;5073640;28;20115;-71
2023/10/08 05:17:09;;;;;;;4.95;0.75;;;13.90;99.90;;;;;;5073545;28;20417;-71
2023/10/08 05:19:50;;;;;;;5.35;1.00;;;13.90;99.90;;;;;;5074697;28;20048;-71
2023/10/08 05:25:08;;;;;;;6.03;1.17;;;13.80;99.90;;;;;;5073729;28;20056;-71
2023/10/08 05:27:38;;;;;;;6.38;1.02;;;13.80;99.90;;;;;;5073427;28;20055;-71
2023/10/08 05:30:16;;;;;;;3.88;0.95;;;13.80;99.90;;;;;;5056753;28;20037;-71
2023/10/08 05:38:38;;;;;;;5.78;0.82;;;13.80;99.90;;;;;;5073538;28;20135;-71
2023/10/08 05:41:05;;;;;;;12.05;2.17;;;13.80;99.90;;;;;;5073415;28;20504;-71
2023/10/08 06:02:48;;;;;;;2.72;0.77;;;13.80;99.90;;;;;;5073227;28;20048;-71
2023/10/08 06:13:16;;;;;;;3.72;0.90;;;13.80;99.90;;;;;;5058780;28;20054;-71
2023/10/08 06:18:26;;;;;;;4.18;1.00;;;13.80;99.90;;;;;;5072361;28;20083;-71
2023/10/08 06:21:08;;;;;;;4.15;1.27;;;13.80;99.90;;;;;;5072654;28;20049;-71
2023/10/08 06:23:37;;;;;;;6.03;1.00;;;13.80;99.90;;;;;;5072413;28;20102;-71
2023/10/08 06:28:36;;;;;;;5.20;0.95;;;13.80;99.90;;;;;;5072186;28;20421;-71
2023/10/08 06:31:06;;;;;;;4.82;1.00;;;13.80;99.90;;;;;;5072250;28;20040;-71
2023/10/08 06:33:33;;;;;;;4.35;1.10;;;13.80;99.90;;;;;;5072440;28;20048;-71
2023/10/08 06:36:05;;;;;;;4.53;1.30;;;13.80;99.90;;;;;;5072049;28;20044;-71
2023/10/08 06:38:32;;;;;;;5.65;0.95;;;13.90;99.90;;;;;;5072120;28;20055;-71
2023/10/08 06:41:09;;;;;;;3.75;1.10;;;13.90;99.90;;;;;;5072101;28;20044;-71
2023/10/08 06:43:36;;;;;;;4.78;1.13;;;13.90;99.90;;;;;;5072064;28;20450;-71
2023/10/08 06:46:03;;;;;;;5.13;1.30;;;13.90;99.90;;;;;;5071930;28;20093;-71
2023/10/08 06:48:29;;;;;;;3.60;1.40;;;14.00;99.90;;;;;;5071910;28;20064;-71
2023/10/08 06:50:58;;;;;;;3.67;1.17;;;14.00;99.90;;;;;;5071976;28;20097;-71
2023/10/08 06:53:24;;;;;;;5.13;1.30;;;14.00;99.90;;;;;;5071884;28;20040;-71
2023/10/08 06:55:56;;;;;;;4.40;1.45;;;14.00;99.90;;;;;;5071842;28;20036;-72
2023/10/08 06:58:25;;;;;;;4.80;1.23;;;14.00;99.90;;;;;;5072191;28;20048;-72
2023/10/08 07:00:52;;;;;;;7.32;1.10;;;14.00;99.90;;;;;;5071825;28;20040;-72
2023/10/08 07:03:18;;;;;;;4.80;1.45;;;14.00;99.90;;;;;;5071864;28;20076;-72
2023/10/08 07:05:54;;;;;;;3.90;1.27;;;14.00;99.90;;;;;;5071989;28;20083;-72
2023/10/08 07:08:35;;;;;;;8.20;2.00;;;14.00;99.90;;;;;;5071722;28;20494;-72
2023/10/08 07:11:06;;;;;;;4.80;1.58;;;14.00;99.90;;;;;;5071820;28;20111;-72
2023/10/08 07:13:35;;;;;;;3.28;1.52;;;14.00;99.90;;;;;;5072311;28;20463;-72
2023/10/08 07:16:04;;;;;;;4.50;1.17;;;14.00;99.90;;;;;;5054968;28;20044;-77
2023/10/08 07:18:31;;;;;;;4.32;1.10;;;14.10;99.90;;;;;;5071664;28;20051;-77
2023/10/08 07:21:00;;;;;;;4.38;1.30;;;14.10;99.90;;;;;;5071741;28;20048;-77
2023/10/08 07:23:29;;;;;;;6.63;1.40;;;14.10;99.90;;;;;;5071705;28;20051;-77
2023/10/08 07:25:59;;;;;;;4.90;1.00;;;14.20;99.90;;;;;;5071620;28;20041;-77
2023/10/08 07:28:26;;;;;;;4.78;1.15;;;14.20;99.90;;;;;;5071590;28;20044;-77
2023/10/08 07:30:52;;;;;;;4.25;1.10;;;14.20;99.90;;;;;;5072335;28;20072;-77
2023/10/08 07:33:18;;;;;;;4.72;1.65;;;14.40;99.90;;;;;;5071884;28;20094;-76
2023/10/08 07:36:11;;;;;;;6.35;1.50;;;14.40;99.90;;;;;;5054870;28;20044;-76
2023/10/08 07:38:43;;;;;;;;;;;14.40;99.90;;;;;;5072033;28;20040;-77
2023/10/08 07:41:14;;;;;;;5.88;1.40;;;14.40;99.90;;;;;;5071620;28;19916;-77
2023/10/08 07:43:44;;;;;;;5.93;1.38;;;14.40;99.90;;;;;;5071549;28;20413;-77
2023/10/08 07:46:10;;;;;;;7.40;1.50;;;14.40;99.90;;;;;;5073190;28;20408;-77
2023/10/08 07:48:42;;;;;;;10.00;1.50;;;14.40;99.90;;;;;;5075315;28;20123;-77
2023/10/08 07:51:08;;;;;;;5.85;1.33;;;14.40;99.90;;;;;;5075420;28;20083;-77
2023/10/08 07:53:41;;;;;;;7.30;1.67;;;14.50;99.90;;;;;;5058590;28;20068;-77
2023/10/08 07:56:08;;;;;;;6.95;1.13;;;14.50;99.90;;;;;;5075611;28;20032;-77
2023/10/08 07:58:37;;;;;;;6.47;1.25;;;14.50;99.90;;;;;;5075473;28;20041;-77
2023/10/08 08:01:06;;;;;;;6.18;1.00;;;14.60;99.90;;;;;;5075323;28;20409;-76
2023/10/08 08:03:36;;;;;;;8.65;1.23;;;14.60;99.90;;;;;;5074989;28;20424;-76
2023/10/08 08:06:06;;;;;;;4.93;1.00;;;14.60;99.90;;;;;;5074983;28;20044;-76
2023/10/08 08:08:35;;;;;;;8.20;1.20;;;14.70;99.90;;;;;;5075137;28;20075;-76
2023/10/08 08:11:07;;;;;;;7.05;1.35;;;14.80;99.90;;;;;;5074948;28;20087;-76
2023/10/08 08:13:36;;;;;;;5.93;1.05;;;14.90;99.90;;;;;;5075020;28;20051;-76
2023/10/08 08:16:20;;;;;;;7.00;1.15;;;14.90;99.90;;;;;;5074797;28;20123;-76
2023/10/08 08:18:59;;;;;;;7.10;1.00;;;14.90;99.90;;;;;;5074845;28;20040;-76
2023/10/08 08:21:25;;;;;;;6.45;1.15;;;14.90;99.90;;;;;;5075065;28;20040;-76
2023/10/08 08:23:52;;;;;;;6.75;1.40;;;14.90;99.90;;;;;;5074734;28;20052;-76
2023/10/08 08:26:26;;;;;;;7.72;1.00;;;14.90;99.90;;;;;;5074573;28;20456;-76
2023/10/08 08:28:57;;;;;;;6.18;1.23;;;14.90;99.90;;;;;;5074841;28;20051;-77
2023/10/08 08:31:23;;;;;;;6.40;1.90;;;15.00;99.90;;;;;;5074572;28;20036;-76
2023/10/08 08:33:52;;;;;;;7.88;1.50;;;15.00;99.90;;;;;;5074539;28;20032;-76
2023/10/08 08:36:26;;;;;;;7.43;1.48;;;15.00;99.90;;;;;;5074422;28;20436;-76
2023/10/08 08:38:52;;;;;;;10.02;1.33;;;15.10;99.90;;;;;;5074435;28;20032;-76
2023/10/08 08:41:19;;;;;;;8.63;1.27;;;15.20;99.90;;;;;;5074750;28;20055;-76
2023/10/08 08:43:48;;;;;;;6.63;1.13;;;15.30;99.90;;;;;;5074688;28;20047;-76
2023/10/08 08:46:14;;;;;;;7.05;1.10;;;15.50;99.90;;;;;;5074470;28;20051;-76
2023/10/08 08:48:42;;;;;;;5.65;1.60;;;15.70;99.90;;;;;;5074266;28;20178;-76
2023/10/08 08:51:09;;;;;;;8.82;1.50;;;15.90;99.90;;;;;;5074253;28;20082;-77
2023/10/08 08:53:38;;;;;;;5.38;1.25;;;16.00;99.90;;;;;;5074200;28;20051;-77
2023/10/08 08:56:09;;;;;;;9.20;1.10;;;16.20;99.90;;;;;;5073799;28;20035;-77
2023/10/08 08:58:35;;;;;;;8.43;1.40;;;16.60;99.90;;;;;;5074378;28;20048;-77
2023/10/08 09:01:03;;;;;;;7.57;1.42;;;16.70;99.90;;;;;;5074064;28;20055;-76
2023/10/08 09:03:32;;;;;;;8.32;1.30;;;16.50;99.90;;;;;;5073988;28;20072;-76
2023/10/08 09:05:59;;;;;;;8.98;1.50;;;16.40;99.90;;;;;;5057153;28;20409;-76
2023/10/08 09:08:33;;;;;;;9.40;1.40;;;16.30;99.90;;;;;;5073832;28;20071;-76
2023/10/08 09:11:00;;;;;;;7.18;1.50;;;16.80;99.90;;;;;;5073918;28;20067;-76
2023/10/08 09:13:27;;;;;;;8.98;1.42;;;17.90;99.90;;;;;;5073855;28;20044;-76
2023/10/08 09:16:12;;;;;;;11.88;1.92;;;18.50;99.90;;;;;;5073738;28;20044;-76
2023/10/08 09:18:38;;;;;;;5.68;1.20;;;18.60;99.90;;;;;;5073690;28;20045;-76
2023/10/08 09:21:15;;;;;;;7.45;1.45;;;18.30;99.90;;;;;;5073933;28;20044;-76
2023/10/08 09:23:49;;;;;;;9.93;1.15;;;18.10;99.90;;;;;;5073871;28;20451;-75
2023/10/08 09:26:18;;;;;;;6.53;1.50;;;18.00;99.90;;;;;;5073851;28;20040;-77
2023/10/08 09:28:48;;;;;;;10.68;1.70;;;18.30;99.90;;;;;;5073747;28;20540;-77
2023/10/08 09:31:14;;;;;;;8.85;1.40;;;18.60;99.90;;;;;;5073722;28;20039;-77
2023/10/08 09:33:40;;;;;;;5.55;1.30;;;19.10;99.90;;;;;;5073407;28;20133;-77
2023/10/08 09:36:10;;;;;;;4.47;1.02;;;19.70;99.90;;;;;;5073575;28;20037;-77
2023/10/08 09:38:37;;;;;;;6.65;1.70;;;20.10;99.90;;;;;;5073291;28;20032;-77
2023/10/08 09:41:03;;;;;;;3.90;1.27;;;20.70;99.90;;;;;;5073427;28;20045;-77
2023/10/08 09:43:34;;;;;;;8.23;1.50;;;21.20;98.70;;;;;;5073560;28;20044;-77
2023/10/08 09:46:22;;;;;;;9.85;1.08;;;21.40;97.00;;;;;;5056845;28;20041;-77
2023/10/08 09:48:54;;;;;;;9.73;1.48;;;21.60;95.40;;;;;;5073522;28;20489;-77
2023/10/08 09:51:20;;;;;;;7.38;1.45;;;22.00;92.50;;;;;;5073756;28;20040;-77
2023/10/08 09:54:05;;;;;;;6.95;1.40;;;22.10;91.60;;;;;;5073302;28;20032;-77
2023/10/08 09:56:32;;;;;;;8.93;1.60;;;22.20;90.50;;;;;;5073002;28;20044;-77
2023/10/08 09:58:59;;;;;;;8.20;1.65;;;22.40;89.70;;;;;;5072921;28;20044;-76
2023/10/08 10:01:26;;;;;;;7.63;1.27;;;22.70;88.00;;;;;;5072916;28;20408;-77
2023/10/08 10:03:52;;;;;;;9.18;1.75;;;23.30;87.40;;;;;;5073080;28;20062;-77
2023/10/08 10:06:18;;;;;;;8.05;1.20;;;23.90;81.90;;;;;;5072716;28;20560;-77
2023/10/08 10:08:45;;;;;;;8.13;1.38;;;24.40;79.00;;;;;;5072002;28;20497;-77
2023/10/08 10:11:11;;;;;;;10.88;1.52;;;24.80;76.20;;;;;;5072650;28;20041;-77
2023/10/08 10:13:44;;;;;;;8.15;1.77;;;24.80;74.80;;;;;;5055963;28;20036;-77
2023/10/08 10:16:13;;;;;;;6.70;1.25;;;24.80;74.20;;;;;;5072513;28;20078;-77
2023/10/08 10:18:39;;;;;;;6.80;1.15;;;25.10;73.30;;;;;;5072671;28;20045;-78
2023/10/08 10:21:13;;;;;;;8.35;1.88;;;25.40;70.00;;;;;;5072496;28;20032;-78
2023/10/08 10:23:50;;;;;;;9.60;1.60;;;25.40;67.90;;;;;;5072850;28;20044;-77
2023/10/08 10:26:31;;;;;;;6.65;1.40;;;24.90;67.90;;;;;;5072563;28;20078;-77
2023/10/08 10:29:14;;;;;;;6.85;1.30;;;24.10;68.20;;;;;;5055764;28;20043;-77
2023/10/08 10:31:54;;;;;;;8.95;1.80;;;23.20;70.50;;;;;;5072617;28;20485;-77
2023/10/08 10:34:27;;;;;;;9.20;1.75;;;22.10;73.10;;;;;;5072508;28;20044;-77
2023/10/08 10:37:09;;;;;;;8.00;1.52;;;21.40;76.20;;;;;;5072893;28;20048;-77
2023/10/08 10:39:39;;;;;;;9.50;1.45;;;20.80;79.70;;;;;;5072534;28;20119;-77
2023/10/08 10:42:06;;;;;;;10.48;1.60;;;20.40;82.10;;;;;;5072422;28;20040;-77
2023/10/08 10:44:36;;;;;;;7.28;1.42;;;20.70;83.20;;;;;;5072311;28;20128;-77
2023/10/08 10:52:44;;;;;;;9.98;1.40;;;22.00;79.10;;;;;;5072312;28;20050;-77
2023/10/08 10:57:43;;;;;;;9.95;1.80;;;22.80;75.40;;;;;;5071963;28;19920;-77
2023/10/08 11:00:47;;;;;;;7.53;1.30;;;22.90;75.20;;;;;;5071877;28;20417;-77
2023/10/08 11:03:02;;;;;;;7.80;1.55;;;22.90;74.20;;;;;;5071249;28;20084;-77
2023/10/08 11:05:39;;;;;;;;;;;22.80;73.60;;;;;;5072493;28;20051;-77
2023/10/08 11:08:06;;;;;;;8.20;1.30;;;22.70;73.20;;;;;;5071924;28;19970;-76
2023/10/08 11:10:39;;;;;;;8.90;1.40;;;22.60;75.00;;;;;;5072161;28;20043;-77
2023/10/08 11:13:14;;;;;;;9.63;1.70;;;22.50;73.10;;;;;;5072018;28;20040;-77
2023/10/08 11:15:49;;;;;;;6.35;1.60;;;22.30;75.10;;;;;;5072089;28;20041;-76
2023/10/08 11:18:33;;;;;;;5.70;1.50;;;22.60;74.60;;;;;;5071615;28;20440;-76
2023/10/08 11:21:25;;;;;;;7.25;1.25;;;23.00;72.60;;;;;;5075298;28;20036;-76
2023/10/08 11:23:53;;;;;;;6.85;1.35;;;22.80;71.50;;;;;;5075148;28;20061;-76
2023/10/08 11:26:19;;;;;;;7.28;1.10;;;22.40;72.60;;;;;;5076104;28;20052;-76
2023/10/08 11:28:49;;;;;;;6.00;1.30;;;22.00;73.60;;;;;;5075718;28;20516;-76
2023/10/08 11:31:19;;;;;;;8.07;1.67;;;21.70;73.90;;;;;;5075718;28;20086;-76
2023/10/08 11:33:54;;;;;;;8.43;1.63;;;21.40;75.30;;;;;;5059053;28;20032;-76
2023/10/08 11:36:38;;;;;;;10.65;1.45;;;21.20;76.40;;;;;;5075614;28;20068;-77
2023/10/08 11:39:21;;;;;;;7.93;1.35;;;21.00;77.20;;;;;;5058959;28;20033;-77
2023/10/08 11:42:03;;;;;;;7.60;1.80;;;20.80;78.80;;;;;;5075588;28;20040;-76
2023/10/08 11:44:36;;;;;;;5.60;1.23;;;20.80;79.40;;;;;;5075928;28;20037;-76
2023/10/08 11:47:11;;;;;;;;;;;21.20;79.50;;;;;;5076862;28;20040;-76
2023/10/08 11:49:46;;;;;;;8.40;1.58;;;21.70;79.00;;;;;;5075463;28;19923;-76
2023/10/08 11:52:15;;;;;;;5.90;1.48;;;22.10;77.80;;;;;;5075397;28;20033;-76
2023/10/08 11:54:42;;;;;;;7.60;1.50;;;22.50;76.10;;;;;;5075474;28;20040;-76
2023/10/08 11:57:09;;;;;;;8.07;1.73;;;22.90;74.30;;;;;;5075223;28;20045;-76
2023/10/08 11:59:39;;;;;;;7.32;1.40;;;23.10;72.10;;;;;;5075210;28;20044;-76
2023/10/08 12:02:08;;;;;;;6.70;2.05;;;23.30;69.80;;;;;;5075201;28;20523;-76
2023/10/08 12:04:33;;;;;;;10.20;2.05;;;23.60;69.10;;;;;;5058369;28;20052;-76
2023/10/08 12:07:02;;;;;;;7.35;1.58;;;23.70;68.40;;;;;;5074938;28;20032;-76
2023/10/08 12:09:28;;;;;;;6.63;1.30;;;23.60;69.60;;;;;;5074950;28;20165;-76
2023/10/08 12:11:56;;;;;;;9.27;1.50;;;23.30;69.10;;;;;;5074953;28;20119;-76
2023/10/08 12:14:26;;;;;;;5.88;1.40;;;22.90;69.20;;;;;;5058257;28;20050;-76
2023/10/08 12:16:52;;;;;;;7.80;1.42;;;22.50;70.60;;;;;;5074660;28;20527;-72
2023/10/08 12:19:17;;;;;;;8.73;1.77;;;22.20;72.00;;;;;;5074870;28;20036;-72
2023/10/08 12:21:46;;;;;;;6.60;1.35;;;22.00;73.00;;;;;;5076030;28;20093;-72
2023/10/08 12:24:12;;;;;;;4.60;1.33;;;21.80;73.20;;;;;;5074905;28;20048;-72
2023/10/08 12:26:45;;;;;;;5.80;1.20;;;21.70;74.00;;;;;;5076146;28;20507;-72
2023/10/08 12:29:14;;;;;;;8.43;1.70;;;21.60;74.50;;;;;;5074627;28;20394;-72
2023/10/08 12:31:40;;;;;;;7.38;1.60;;;21.50;74.70;;;;;;5074200;28;20048;-72
2023/10/08 12:34:05;;;;;;;6.35;1.23;;;21.30;75.50;;;;;;5074838;28;20131;-72
2023/10/08 12:36:36;;;;;;;6.15;1.30;;;21.20;75.80;;;;;;5074669;28;20473;-72
2023/10/08 12:39:08;;;;;;;6.25;1.33;;;21.00;76.80;;;;;;5074652;28;20052;-72
2023/10/08 12:41:38;;;;;;;5.78;1.27;;;21.00;77.50;;;;;;5074630;28;20046;-72
2023/10/08 12:44:07;;;;;;;7.95;1.20;;;21.10;76.60;;;;;;5075635;28;20444;-72
2023/10/08 12:46:33;;;;;;;9.77;1.55;;;21.30;75.90;;;;;;5074457;28;20503;-71
2023/10/08 12:49:01;;;;;;;8.35;1.33;;;21.60;74.90;;;;;;5074203;28;20087;-69
2023/10/08 12:51:31;;;;;;;6.53;1.80;;;21.80;75.40;;;;;;5074491;28;20124;-69
2023/10/08 12:53:58;;;;;;;8.57;1.38;;;22.00;74.40;;;;;;5074478;28;20545;-69
2023/10/08 12:56:31;;;;;;;8.00;1.65;;;22.20;73.10;;;;;;5074343;28;20089;-68
2023/10/08 12:58:57;;;;;;;8.40;1.58;;;22.30;72.40;;;;;;5074181;28;20040;-68
2023/10/08 13:01:23;;;;;;;8.93;1.65;;;22.50;72.70;;;;;;5074074;28;20041;-68
2023/10/08 13:03:49;;;;;;;5.63;1.10;;;22.70;71.60;;;;;;5074080;28;20093;-68
2023/10/08 13:06:28;;;;;;;8.63;1.83;;;22.80;70.80;;;;;;5074190;28;20059;-68
2023/10/08 13:08:55;;;;;;;6.75;1.42;;;23.00;70.20;;;;;;5073895;28;20048;-68
2023/10/08 13:11:22;;;;;;;5.07;1.40;;;23.10;69.10;;;;;;5073923;28;20040;-68
2023/10/08 13:13:52;;;;;;;9.15;1.70;;;23.30;70.20;;;;;;5073860;28;20044;-68
2023/10/08 13:16:21;;;;;;;6.30;1.60;;;23.30;67.90;;;;;;5073640;28;20049;-68
2023/10/08 13:18:47;;;;;;;8.70;1.33;;;23.20;68.50;;;;;;5073783;28;20055;-68
2023/10/08 13:21:13;;;;;;;5.93;1.50;;;23.20;69.50;;;;;;5075218;28;20119;-69
2023/10/08 13:23:39;;;;;;;5.43;1.23;;;23.00;69.90;;;;;;5074869;28;20119;-68
2023/10/08 13:26:06;;;;;;;6.95;1.40;;;23.00;69.50;;;;;;5074774;28;20032;-68
2023/10/08 13:28:36;;;;;;;7.00;1.75;;;23.10;69.70;;;;;;5073510;28;20040;-68
2023/10/08 13:31:11;;;;;;;9.25;1.52;;;23.20;69.90;;;;;;5073474;28;20048;-67
2023/10/08 13:33:48;;;;;;;11.45;1.85;;;23.30;69.30;;;;;;5075007;28;20047;-68
2023/10/08 13:36:15;;;;;;;8.18;1.52;;;23.10;69.60;;;;;;5074655;28;20064;-67
2023/10/08 13:38:41;;;;;;;8.10;1.60;;;22.70;70.00;;;;;;5073587;28;20048;-67
2023/10/08 13:41:20;;;;;;;8.82;1.88;;;22.30;71.00;;;;;;5073292;28;20040;-67
2023/10/08 13:43:53;;;;;;;7.78;1.42;;;22.00;71.50;;;;;;5072333;28;20078;-67
2023/10/08 13:46:22;;;;;;;8.25;1.23;;;21.70;72.50;;;;;;5073424;28;20059;-67
2023/10/08 13:48:49;;;;;;;6.35;1.15;;;21.40;72.60;;;;;;5074316;28;20076;-67
2023/10/08 13:51:20;;;;;;;5.55;1.30;;;21.10;72.90;;;;;;5073343;28;20110;-67
2023/10/08 13:54:09;;;;;;;5.53;1.02;;;20.80;72.50;;;;;;5073285;28;20094;-67
2023/10/08 13:56:37;;;;;;;7.13;1.30;;;20.70;73.40;;;;;;5074625;28;20125;-68
2023/10/08 13:59:04;;;;;;;6.53;1.13;;;20.40;74.50;;;;;;5074161;28;20044;-68
2023/10/08 14:01:34;;;;;;;7.95;1.40;;;20.20;75.80;;;;;;5072805;28;20051;-69
2023/10/08 14:04:07;;;;;;;8.85;2.35;;;20.20;76.60;;;;;;5073019;28;20062;-68
2023/10/08 14:06:37;;;;;;;6.78;1.40;;;20.00;78.40;;;;;;5072839;28;20055;-68
2023/10/08 14:09:11;;;;;;;8.13;1.23;;;19.90;79.10;;;;;;5072912;28;20051;-68